Kezdőlap
METAR-TAF:

METAR-TAF

Repülőterek :

Curaçao, Holland Antillák

földrajzi szélesség: 12-12N, földrajzi hosszúság: 068-58W, magasság: 9 m

Jelenlegi meteorológiai megfigyelések

A jelentés 59 perccel ezelõtt készült, 19:00 UTC
Keleti szél 13 kt
Hőmérséklet 30°C
Páratartalom 70%
Légköri nyomás 1010 hPa
Látótávolság 10 km, vagy több
Kevés felhő 2200 lábon

METAR: TNCC 161900Z 10013KT 9999 FEW022 30/24 Q1010 NOSIG

Idő: 15:59 (19:59 UTC)

Előrejelzés

A jelentés 4 órával és 29 perccel ezelõtt készült, 15:30 UTC
Az előrejelzés 16-én 18 óra UTC és 17-én 18 óra UTC között érvényes
Kelet-délkeleti szél 15 kt
Látótávolság 10 km, vagy több
Szórványos felhőzet 2000 lábon
17-én 03 óra UTC és 17-én 16 óra UTC között ideiglenes
Látótávolság: 5000 m
Szakadozott felhőzet 1500 lábon
záporok

TAF: TNCC 161530Z 1618/1718 11015KT 9999 SCT020 TEMPO 1703/1716 5000 SHRA BKN015

Meteorológiai megfigyelések és előrejelzések több, mint 4000 repülőtéren (METAR és TAF jelentéseket).

A térképen piros és sárga pontok jelzik az elérhető meteorológiai állomásokat.

Mozgassa az egeret a pont fölött, hogy megjelenjen az állomás neve.

Azután kattintson az időjárási megfigyelések és előrejelzések megtekintéséhez.

A térkép megváltoztatása: kattintson a fekete keresztel jelölt zöld gombra ráközelítéshez, a vonallal jelölt zöld gombra távolításhoz, vagy a zöld nyilakra a szomszédos térképek eléréséhez.


METAR-TAF: